createdAt,value
2024-03-13T00:01:54.958Z,100299.13
2024-03-13T00:04:22.343Z,100298.25
2024-03-13T00:06:51.729Z,100301.72
2024-03-13T00:09:21.812Z,100302.59
2024-03-13T00:11:49.014Z,100314.66
2024-03-13T00:14:17.917Z,100305.22
2024-03-13T00:16:45.748Z,100310.41
2024-03-13T00:19:13.699Z,100306.16
2024-03-13T00:21:42.140Z,100292.44
2024-03-13T00:24:09.340Z,100299.41
2024-03-13T00:26:36.453Z,100299.41
2024-03-13T00:29:05.913Z,100295.97
2024-03-13T00:31:33.253Z,100302.00
2024-03-13T00:34:02.164Z,100297.69
2024-03-13T00:36:29.867Z,100302.88
2024-03-13T00:38:59.915Z,100304.59
2024-03-13T00:41:27.233Z,100302.00
2024-03-13T00:43:54.828Z,100307.16
2024-03-13T00:46:24.750Z,100306.31
2024-03-13T00:48:52.401Z,100306.31
2024-03-13T00:51:20.026Z,100302.91
2024-03-13T00:53:47.732Z,100301.19
2024-03-13T00:56:14.796Z,100306.34
2024-03-13T00:58:42.391Z,100304.66
2024-03-13T01:01:13.412Z,100304.66
2024-03-13T01:03:40.618Z,100307.22
2024-03-13T01:06:07.869Z,100301.25
2024-03-13T01:08:36.304Z,100297.81
2024-03-13T01:11:03.688Z,100286.63
2024-03-13T01:13:31.211Z,100286.63
2024-03-13T01:15:58.366Z,100285.78
2024-03-13T01:18:26.274Z,100292.66
2024-03-13T01:20:53.622Z,100290.97
2024-03-13T01:23:22.147Z,100294.44
2024-03-13T01:25:49.955Z,100300.44
2024-03-13T01:28:17.248Z,100296.16
2024-03-13T01:30:45.346Z,100293.59
2024-03-13T01:33:14.072Z,100296.16
2024-03-13T01:35:41.332Z,100297.03
2024-03-13T01:38:08.974Z,100301.31
2024-03-13T01:40:54.928Z,100294.44
2024-03-13T01:43:40.582Z,100301.31
2024-03-13T01:46:32.384Z,100294.47
2024-03-13T01:49:25.538Z,100292.78
2024-03-13T01:52:15.873Z,100297.91
2024-03-13T01:55:16.598Z,100295.31
2024-03-13T01:58:01.951Z,100294.47
2024-03-13T02:00:48.566Z,100296.16
2024-03-13T02:03:16.399Z,100287.56
2024-03-13T02:05:49.299Z,100299.63
2024-03-13T02:08:19.143Z,100292.78
2024-03-13T02:10:48.409Z,100291.03
2024-03-13T02:13:19.301Z,100298.78
2024-03-13T02:15:46.867Z,100294.47
2024-03-13T02:18:20.842Z,100298.75
2024-03-13T02:20:50.187Z,100302.19
2024-03-13T02:23:20.637Z,100291.88
2024-03-13T02:25:47.809Z,100304.75
2024-03-13T02:28:16.104Z,100307.31
2024-03-13T02:30:44.035Z,100313.31
2024-03-13T02:33:13.062Z,100302.91
2024-03-13T02:35:41.694Z,100318.44
2024-03-13T02:38:08.950Z,100315.00
2024-03-13T02:40:37.476Z,100320.16
2024-03-13T02:43:06.088Z,100320.13
2024-03-13T02:45:33.732Z,100328.72
2024-03-13T02:48:01.208Z,100332.16
2024-03-13T02:50:29.616Z,100333.91
2024-03-13T02:52:56.941Z,100328.78
2024-03-13T02:55:24.379Z,100315.03
2024-03-13T02:57:51.624Z,100330.47
2024-03-13T03:00:18.947Z,100326.19
2024-03-13T03:02:46.387Z,100320.19
2024-03-13T03:05:13.771Z,100323.66
2024-03-13T03:07:40.968Z,100321.94
2024-03-13T03:10:08.347Z,100335.63
2024-03-13T03:12:35.580Z,100330.50
2024-03-13T03:15:02.845Z,100338.19
2024-03-13T03:17:30.145Z,100333.91
2024-03-13T03:19:57.478Z,100345.03
2024-03-13T03:22:24.711Z,100342.47
2024-03-13T03:24:52.125Z,100327.00
2024-03-13T03:27:20.121Z,100323.59
2024-03-13T03:29:47.279Z,100325.28
2024-03-13T03:32:14.530Z,100320.09
2024-03-13T03:34:41.771Z,100332.97
2024-03-13T03:37:09.050Z,100333.84
2024-03-13T03:39:36.492Z,100325.22
2024-03-13T03:42:04.626Z,100332.09
2024-03-13T03:44:31.843Z,100326.09
2024-03-13T03:47:00.321Z,100327.78
2024-03-13T03:49:28.086Z,100332.94
2024-03-13T03:51:55.330Z,100336.34
2024-03-13T03:54:25.422Z,100340.63
2024-03-13T03:56:53.593Z,100337.16
2024-03-13T03:59:20.769Z,100332.03
2024-03-13T04:01:48.432Z,100324.28
2024-03-13T04:04:15.834Z,100329.47
2024-03-13T04:06:43.056Z,100330.28
2024-03-13T04:09:16.244Z,100332.03
2024-03-13T04:11:44.251Z,100332.03
2024-03-13T04:14:14.607Z,100333.69
2024-03-13T04:16:45.181Z,100336.22
2024-03-13T04:19:13.083Z,100340.53
2024-03-13T04:21:40.670Z,100343.97
2024-03-13T04:24:10.943Z,100336.28
2024-03-13T04:26:39.120Z,100346.53
2024-03-13T04:29:06.349Z,100333.66
2024-03-13T04:31:38.833Z,100342.28
2024-03-13T04:34:09.380Z,100346.53
2024-03-13T04:36:40.083Z,100343.94
2024-03-13T04:39:08.653Z,100338.81
2024-03-13T04:41:41.272Z,100343.94
2024-03-13T04:44:11.769Z,100347.41
2024-03-13T04:46:40.107Z,100352.50
2024-03-13T04:49:09.972Z,100352.44
2024-03-13T04:51:39.160Z,100364.47
2024-03-13T04:54:07.645Z,100354.16
2024-03-13T04:56:35.660Z,100338.69
2024-03-13T04:59:02.791Z,100359.34
2024-03-13T05:01:30.084Z,100363.63
2024-03-13T05:03:57.832Z,100357.66
2024-03-13T05:06:25.006Z,100362.78
2024-03-13T05:08:52.162Z,100356.78
2024-03-13T05:11:20.206Z,100357.69
2024-03-13T05:13:47.657Z,100359.38
2024-03-13T05:16:16.791Z,100364.53
2024-03-13T05:18:44.459Z,100361.97
2024-03-13T05:21:14.156Z,100361.09
2024-03-13T05:23:41.372Z,100362.84
2024-03-13T05:26:08.838Z,100345.63
2024-03-13T05:28:36.009Z,100367.16
2024-03-13T05:31:03.312Z,100362.84
2024-03-13T05:33:30.481Z,100373.16
2024-03-13T05:35:57.570Z,100377.44
2024-03-13T05:38:24.846Z,100376.50
2024-03-13T05:40:52.253Z,100378.25
2024-03-13T05:43:21.425Z,100374.00
2024-03-13T05:45:48.539Z,100374.88
2024-03-13T05:48:16.162Z,100384.31
2024-03-13T05:50:43.864Z,100376.66
2024-03-13T05:53:10.975Z,100387.78
2024-03-13T05:55:38.094Z,100383.50
2024-03-13T05:58:05.849Z,100378.34
2024-03-13T06:00:33.086Z,100381.81
2024-03-13T06:03:00.270Z,100380.97
2024-03-13T06:05:27.638Z,100379.28
2024-03-13T06:07:58.111Z,100384.44
2024-03-13T06:10:29.696Z,100375.88
2024-03-13T06:12:58.207Z,100387.06
2024-03-13T06:15:25.459Z,100388.78
2024-03-13T06:17:52.980Z,100388.78
2024-03-13T06:20:20.457Z,100387.09
2024-03-13T06:22:47.573Z,100378.50
2024-03-13T06:25:15.557Z,100390.50
2024-03-13T06:27:42.899Z,100388.78
2024-03-13T06:30:10.623Z,100391.38
2024-03-13T06:32:37.997Z,100382.81
2024-03-13T06:35:08.235Z,100385.44
2024-03-13T06:37:36.928Z,100390.63
2024-03-13T06:40:05.690Z,100382.06
2024-03-13T06:42:33.871Z,100382.09
2024-03-13T06:45:01.011Z,100382.97
2024-03-13T06:47:28.254Z,100392.44
2024-03-13T06:49:55.421Z,100394.13
2024-03-13T06:52:22.698Z,100388.97
2024-03-13T06:54:49.957Z,100398.44
2024-03-13T06:57:17.194Z,100399.31
2024-03-13T06:59:46.554Z,100401.88
2024-03-13T07:02:18.847Z,100401.91
2024-03-13T07:04:46.325Z,100398.50
2024-03-13T07:07:13.463Z,100406.22
2024-03-13T07:09:40.729Z,100405.38
2024-03-13T07:12:08.961Z,100407.94
2024-03-13T07:14:36.339Z,100411.38
2024-03-13T07:17:03.493Z,100414.78
2024-03-13T07:19:32.882Z,100423.34
2024-03-13T07:22:00.316Z,100424.22
2024-03-13T07:24:27.607Z,100416.50
2024-03-13T07:26:54.676Z,100415.59
2024-03-13T07:29:21.962Z,100428.50
2024-03-13T07:31:49.125Z,100419.06
2024-03-13T07:36:45.672Z,100416.53
2024-03-13T07:39:16.160Z,100423.38
2024-03-13T07:41:43.428Z,100415.69
2024-03-13T07:44:10.596Z,100418.28
2024-03-13T07:46:38.302Z,100427.75
2024-03-13T07:49:05.498Z,100427.78
2024-03-13T07:51:32.724Z,100426.94
2024-03-13T07:54:00.017Z,100417.50
2024-03-13T07:56:27.256Z,100433.84
2024-03-13T07:58:54.601Z,100420.94
2024-03-13T08:01:24.078Z,100425.22
2024-03-13T08:03:51.424Z,100427.00
2024-03-13T09:06:44.491Z,100472.16
2024-03-13T09:09:13.404Z,100467.88
2024-03-13T09:11:42.818Z,100468.78
2024-03-13T09:14:11.280Z,100471.41
2024-03-13T09:16:38.552Z,100462.81
2024-03-13T09:19:05.761Z,100474.03
2024-03-13T09:21:32.970Z,100479.19
2024-03-13T09:24:00.454Z,100479.19
2024-03-13T09:26:28.289Z,100477.50
2024-03-13T09:28:57.397Z,100474.03
2024-03-13T09:31:26.076Z,100486.94
2024-03-13T09:33:53.558Z,100486.06
2024-03-13T09:36:20.963Z,100491.22
2024-03-13T09:38:48.350Z,100494.69
2024-03-13T09:41:15.723Z,100508.44
2024-03-13T09:43:42.962Z,100503.28
2024-03-13T09:46:15.284Z,100505.88
2024-03-13T09:48:44.744Z,100503.28
2024-03-13T09:51:13.313Z,100501.59
2024-03-13T09:53:43.226Z,100506.75
2024-03-13T09:56:18.727Z,100497.28
2024-03-13T09:58:47.205Z,100499.03
2024-03-13T10:01:21.106Z,100493.88
2024-03-13T10:03:58.893Z,100505.06
2024-03-13T10:06:27.452Z,100503.38
2024-03-13T10:08:56.934Z,100503.38
2024-03-13T10:11:27.327Z,100512.84
2024-03-13T10:13:57.202Z,100515.41
2024-03-13T10:16:26.772Z,100511.09
2024-03-13T10:18:56.944Z,100503.34
2024-03-13T10:21:28.299Z,100513.66
2024-03-13T10:24:00.693Z,100513.66
2024-03-13T10:26:30.557Z,100506.75
2024-03-13T10:28:59.238Z,100512.78
2024-03-13T10:31:29.247Z,100511.13
2024-03-13T10:33:57.890Z,100511.91
2024-03-13T10:36:25.802Z,100514.56
2024-03-13T10:38:54.614Z,100513.69
2024-03-13T10:41:21.964Z,100513.69
2024-03-13T10:43:49.369Z,100515.41
2024-03-13T10:46:16.707Z,100525.72
2024-03-13T10:48:44.143Z,100520.56
2024-03-13T10:51:15.857Z,100512.78
2024-03-13T10:53:44.854Z,100516.25
2024-03-13T10:56:16.428Z,100511.13
2024-03-13T10:58:51.009Z,100511.13
2024-03-13T11:01:19.488Z,100508.50
2024-03-13T11:03:48.020Z,100515.41
2024-03-13T11:06:17.175Z,100510.25
2024-03-13T11:08:45.521Z,100515.41
2024-03-13T11:11:21.046Z,100505.09
2024-03-13T11:13:51.939Z,100506.84
2024-03-13T11:16:24.676Z,100502.53
2024-03-13T11:18:53.178Z,100505.09
2024-03-13T11:21:46.131Z,100504.25
2024-03-13T11:24:20.422Z,100508.56
2024-03-13T11:26:50.500Z,100496.53
2024-03-13T11:29:18.011Z,100505.09
2024-03-13T11:31:48.401Z,100506.84
2024-03-13T11:34:16.305Z,100491.31
2024-03-13T11:36:44.148Z,100493.09
2024-03-13T11:39:17.386Z,100496.53
2024-03-13T11:41:44.994Z,100481.06
2024-03-13T11:44:20.515Z,100483.66
2024-03-13T11:46:50.278Z,100475.91
2024-03-13T11:49:19.118Z,100477.66
2024-03-13T11:52:04.906Z,100481.94
2024-03-13T11:54:34.197Z,100470.81
2024-03-13T11:57:05.991Z,100468.22
2024-03-13T11:59:44.901Z,100475.09
2024-03-13T12:02:30.390Z,100472.53
2024-03-13T12:05:08.391Z,100470.78
2024-03-13T12:07:42.726Z,100466.50
2024-03-13T12:10:19.789Z,100477.69
2024-03-13T12:12:48.450Z,100479.41
2024-03-13T12:15:20.700Z,100467.38
2024-03-13T12:17:52.441Z,100476.84
2024-03-13T12:20:21.182Z,100463.91
2024-03-13T12:22:50.880Z,100469.09
2024-03-13T12:25:21.097Z,100467.34
2024-03-13T12:27:49.156Z,100466.50
2024-03-13T12:30:20.761Z,100470.81
2024-03-13T12:32:50.259Z,100468.22
2024-03-13T12:35:18.336Z,100463.94
2024-03-13T12:37:52.247Z,100467.38
2024-03-13T12:40:19.474Z,100465.63
2024-03-13T12:42:50.068Z,100467.38
2024-03-13T12:45:18.131Z,100463.09
2024-03-13T12:47:46.425Z,100469.09
2024-03-13T12:50:18.576Z,100474.25
2024-03-13T12:52:51.259Z,100474.25
2024-03-13T12:55:21.313Z,100474.25
2024-03-13T12:57:49.315Z,100465.63
2024-03-13T13:00:21.423Z,100473.38
2024-03-13T13:02:55.262Z,100469.94
2024-03-13T13:05:22.987Z,100469.06
2024-03-13T13:07:53.622Z,100474.22
2024-03-13T13:10:23.407Z,100478.53
2024-03-13T13:12:50.841Z,100476.81
2024-03-13T13:15:21.429Z,100480.25
2024-03-13T13:17:49.396Z,100475.97
2024-03-13T13:20:17.623Z,100475.09
2024-03-13T13:22:47.708Z,100481.09
2024-03-13T13:25:17.688Z,100480.22
2024-03-13T13:27:47.167Z,100481.09
2024-03-13T13:30:16.374Z,100482.81
2024-03-13T13:32:43.971Z,100477.66
2024-03-13T13:35:15.858Z,100482.84
2024-03-13T13:37:47.211Z,100484.53
2024-03-13T13:40:21.368Z,100477.66
2024-03-13T13:42:54.133Z,100478.53
2024-03-13T13:45:25.785Z,100473.34
2024-03-13T13:47:54.922Z,100486.25
2024-03-13T13:50:23.261Z,100475.91
2024-03-13T13:52:50.657Z,100479.38
2024-03-13T13:55:19.060Z,100481.09
2024-03-13T13:57:52.236Z,100489.69
2024-03-13T14:00:24.752Z,100478.50
2024-03-13T14:02:54.243Z,100474.22
2024-03-13T14:05:22.317Z,100473.34
2024-03-13T14:07:52.588Z,100482.81
2024-03-13T14:10:20.314Z,100477.66
2024-03-13T14:12:49.885Z,100482.81
2024-03-13T14:15:21.229Z,100480.25
2024-03-13T14:17:51.586Z,100481.09
2024-03-13T14:20:23.189Z,100479.38
2024-03-13T14:22:55.513Z,100475.06
2024-03-13T14:25:28.085Z,100480.22
2024-03-13T14:27:56.304Z,100479.38
2024-03-13T14:30:24.174Z,100474.19
2024-03-13T14:32:52.232Z,100472.50
2024-03-13T14:35:21.221Z,100477.66
2024-03-13T14:37:48.697Z,100463.03
2024-03-13T14:40:18.930Z,100472.50
2024-03-13T14:42:48.313Z,100474.22
2024-03-13T14:45:16.820Z,100470.78
2024-03-13T14:47:46.757Z,100473.34
2024-03-13T14:50:20.404Z,100470.75
2024-03-13T14:55:22.401Z,100472.50
2024-03-13T14:57:49.716Z,100470.78
2024-03-13T15:00:18.121Z,100477.66
2024-03-13T15:02:45.708Z,100475.94
2024-03-13T15:05:13.958Z,100479.41
2024-03-13T15:07:41.253Z,100482.81
2024-03-13T15:10:09.231Z,100477.66
2024-03-13T15:12:36.522Z,100482.81
2024-03-13T15:15:06.846Z,100479.41
2024-03-13T15:17:38.067Z,100475.97
2024-03-13T15:20:06.531Z,100477.69
2024-03-13T15:22:34.171Z,100483.69
2024-03-13T15:25:06.475Z,100473.38
2024-03-13T15:27:34.628Z,100466.50
2024-03-13T15:30:04.755Z,100474.25
2024-03-13T15:32:32.128Z,100475.97
2024-03-13T15:35:00.770Z,100474.25
2024-03-13T15:37:27.929Z,100474.25
2024-03-13T15:39:55.096Z,100469.09
2024-03-13T15:42:22.368Z,100472.53
2024-03-13T15:44:51.081Z,100470.81
2024-03-13T15:47:18.305Z,100475.97
2024-03-13T15:49:45.378Z,100467.38
2024-03-13T15:52:13.054Z,100474.25
2024-03-13T15:54:41.138Z,100469.97
2024-03-13T15:57:08.503Z,100467.38
2024-03-13T15:59:35.860Z,100471.66
2024-03-13T16:02:03.126Z,100473.41
2024-03-13T16:04:30.460Z,100472.53
2024-03-13T16:06:58.828Z,100472.53
2024-03-13T16:09:27.972Z,100475.97
2024-03-13T16:11:56.616Z,100474.25
2024-03-13T16:14:24.086Z,100465.63
2024-03-13T16:16:51.338Z,100482.84
2024-03-13T16:19:18.514Z,100482.00
2024-03-13T16:21:45.669Z,100473.38
2024-03-13T16:24:16.264Z,100485.41
2024-03-13T16:26:43.575Z,100487.13
2024-03-13T16:29:10.893Z,100476.81
2024-03-13T16:31:38.032Z,100494.88
2024-03-13T16:34:05.626Z,100494.88
2024-03-13T16:36:36.873Z,100495.72
2024-03-13T16:39:08.332Z,100493.13
2024-03-13T16:41:35.741Z,100486.22
2024-03-13T16:44:02.998Z,100487.09
2024-03-13T16:46:31.454Z,100487.09
2024-03-13T16:49:00.229Z,100492.25
2024-03-13T16:51:27.840Z,100494.78
2024-03-13T16:53:55.161Z,100494.78
2024-03-13T16:56:22.806Z,100484.44
2024-03-13T16:58:50.027Z,100489.59
2024-03-13T17:01:17.905Z,100497.31
2024-03-13T17:03:46.026Z,100493.84
2024-03-13T17:06:13.948Z,100496.41
2024-03-13T17:08:41.307Z,100499.81
2024-03-13T17:11:08.980Z,100498.97
2024-03-13T17:13:36.286Z,100496.34
2024-03-13T17:16:03.588Z,100492.91
2024-03-13T17:18:33.152Z,100496.34
2024-03-13T17:21:01.669Z,100489.44
2024-03-13T17:23:28.828Z,100503.16
2024-03-13T17:25:56.204Z,100489.41
2024-03-13T17:28:23.562Z,100492.84
2024-03-13T17:30:50.819Z,100498.00
2024-03-13T17:33:18.163Z,100500.53
2024-03-13T17:35:48.033Z,100497.94
2024-03-13T17:38:16.222Z,100506.53
2024-03-13T17:40:43.408Z,100498.78
2024-03-13T17:43:10.974Z,100506.50
2024-03-13T17:45:39.679Z,100500.47
2024-03-13T17:48:10.685Z,100511.66
2024-03-13T17:50:38.919Z,100506.50
2024-03-13T17:53:06.852Z,100505.63
2024-03-13T17:55:34.260Z,100504.75
2024-03-13T17:58:01.578Z,100506.44
2024-03-13T18:00:29.112Z,100513.31
2024-03-13T18:02:57.677Z,100511.56
2024-03-13T18:05:26.236Z,100510.72
2024-03-13T18:07:54.037Z,100511.56
2024-03-13T18:10:24.998Z,100509.84
2024-03-13T18:12:52.869Z,100512.41
2024-03-13T18:15:20.577Z,100506.38
2024-03-13T18:17:47.870Z,100521.81
2024-03-13T18:20:15.525Z,100533.00
2024-03-13T18:22:43.188Z,100534.66
2024-03-13T18:25:10.891Z,100532.97
2024-03-13T18:27:38.903Z,100530.34
2024-03-13T18:30:14.787Z,100528.69
2024-03-13T18:32:44.948Z,100527.81
2024-03-13T18:35:14.191Z,100533.81
2024-03-13T18:37:41.544Z,100528.66
2024-03-13T18:40:15.414Z,100529.50
2024-03-13T18:42:46.563Z,100533.81
2024-03-13T18:45:13.894Z,100529.53
2024-03-13T18:47:42.743Z,100529.53
2024-03-13T18:50:12.739Z,100533.78
2024-03-13T18:52:40.649Z,100533.78
2024-03-13T18:55:09.004Z,100537.25
2024-03-13T18:57:37.236Z,100538.94
2024-03-13T19:00:05.189Z,100529.50
2024-03-13T19:02:32.560Z,100528.63
2024-03-13T19:05:06.194Z,100528.59
2024-03-13T19:07:37.925Z,100537.19
2024-03-13T19:10:05.325Z,100528.59
2024-03-13T19:12:32.503Z,100540.63
2024-03-13T19:14:59.981Z,100542.31
2024-03-13T19:17:27.866Z,100538.03
2024-03-13T19:19:57.241Z,100540.59
2024-03-13T19:22:24.420Z,100545.75
2024-03-13T19:24:51.623Z,100544.91
2024-03-13T19:27:18.828Z,100544.91
2024-03-13T19:29:46.066Z,100537.13
2024-03-13T19:32:15.859Z,100540.56
2024-03-13T19:34:46.056Z,100545.69
2024-03-13T19:37:14.598Z,100537.97
2024-03-13T19:39:42.079Z,100529.41
2024-03-13T19:42:09.305Z,100542.25
2024-03-13T19:44:36.472Z,100530.16
2024-03-13T19:47:03.776Z,100542.22
2024-03-13T19:49:30.955Z,100542.22
2024-03-13T19:51:58.700Z,100540.47
2024-03-13T19:54:26.455Z,100536.16
2024-03-13T19:56:53.667Z,100543.91
2024-03-13T19:59:20.978Z,100537.06
2024-03-13T20:01:48.275Z,100545.59
2024-03-13T20:04:15.535Z,100544.75
2024-03-13T20:06:44.756Z,100546.44
2024-03-13T20:09:15.325Z,100543.84
2024-03-13T20:11:43.248Z,100539.50
2024-03-13T20:14:14.734Z,100544.59
2024-03-13T20:16:44.189Z,100535.97
2024-03-13T20:19:11.669Z,100534.25
2024-03-13T20:21:38.872Z,100527.31
2024-03-13T20:24:06.514Z,100538.47
2024-03-13T20:26:41.783Z,100535.81
2024-03-13T20:29:09.513Z,100538.34
2024-03-13T20:31:39.500Z,100549.47
2024-03-13T20:34:06.924Z,100548.53
2024-03-13T20:36:37.155Z,100541.56
2024-03-13T20:39:07.948Z,100541.50
2024-03-13T20:41:36.194Z,100547.44
2024-03-13T20:44:04.952Z,100553.41
2024-03-13T20:46:34.569Z,100551.66
2024-03-13T20:49:02.114Z,100546.50
2024-03-13T20:51:29.693Z,100537.91
2024-03-13T20:53:57.045Z,100554.34
2024-03-13T20:56:24.340Z,100544.97
2024-03-13T20:58:51.868Z,100550.16
2024-03-13T21:01:21.485Z,100551.84
2024-03-13T21:03:48.853Z,100551.81
2024-03-13T21:06:16.281Z,100544.91
2024-03-13T21:08:43.607Z,100546.69
2024-03-13T21:11:12.988Z,100550.09
2024-03-13T21:13:41.155Z,100544.13
2024-03-13T21:16:08.520Z,100545.81
2024-03-13T21:18:39.668Z,100546.69
2024-03-13T21:21:08.307Z,100542.41
2024-03-13T21:23:35.816Z,100546.69
2024-03-13T21:26:08.808Z,100543.25
2024-03-13T21:28:36.921Z,100532.09
2024-03-13T21:31:08.005Z,100540.69
2024-03-13T21:33:37.048Z,100536.38
2024-03-13T21:36:05.114Z,100534.63
2024-03-13T21:38:32.933Z,100540.66
2024-03-13T21:41:00.583Z,100536.38
2024-03-13T21:43:32.202Z,100533.78
2024-03-13T21:46:02.872Z,100532.94
2024-03-13T21:48:30.120Z,100537.19
2024-03-13T21:50:58.326Z,100536.38
2024-03-13T21:53:25.627Z,100536.41
2024-03-13T21:55:52.725Z,100535.56
2024-03-13T21:58:19.983Z,100538.19
2024-03-13T22:00:47.192Z,100530.50
2024-03-13T22:03:14.374Z,100534.81
2024-03-13T22:05:44.050Z,100536.53
2024-03-13T22:08:11.565Z,100531.38
2024-03-13T22:10:42.954Z,100531.38
2024-03-13T22:13:11.282Z,100528.84
2024-03-13T22:15:39.462Z,100522.84
2024-03-13T22:18:06.956Z,100521.13
2024-03-13T22:20:34.312Z,100521.13
2024-03-13T22:23:01.433Z,100517.72
2024-03-13T22:25:28.573Z,100519.41
2024-03-13T22:27:56.733Z,100514.25
2024-03-13T22:30:23.855Z,100509.97
2024-03-13T22:32:51.231Z,100512.56
2024-03-13T22:35:18.403Z,100512.56
2024-03-13T22:37:45.511Z,100513.41
2024-03-13T22:40:13.421Z,100511.69
2024-03-13T22:42:40.686Z,100512.56
2024-03-13T22:45:08.160Z,100515.13
2024-03-13T22:47:35.724Z,100507.41
2024-03-13T22:50:05.557Z,100510.81
2024-03-13T22:52:32.890Z,100509.09
2024-03-13T22:55:00.188Z,100509.09
2024-03-13T22:57:28.241Z,100511.63
2024-03-13T22:59:57.695Z,100519.31
2024-03-13T23:02:26.413Z,100508.19
2024-03-13T23:04:57.056Z,100513.31
2024-03-13T23:07:27.752Z,100507.25
2024-03-13T23:09:55.009Z,100514.97
2024-03-13T23:12:22.270Z,100519.25
2024-03-13T23:14:49.457Z,100527.78
2024-03-13T23:17:17.888Z,100519.19
2024-03-13T23:19:45.824Z,100519.16
2024-03-13T23:22:12.930Z,100518.34
2024-03-13T23:24:40.031Z,100514.06
2024-03-13T23:27:08.435Z,100509.81
2024-03-13T23:30:00.841Z,100509.78
2024-03-13T23:32:30.808Z,100515.72
2024-03-13T23:34:58.011Z,100507.19
2024-03-13T23:37:25.269Z,100502.88
2024-03-13T23:39:52.735Z,100510.59
2024-03-13T23:42:24.067Z,100505.41
2024-03-13T23:44:51.471Z,100505.41
2024-03-13T23:47:20.612Z,100513.97
2024-03-13T23:49:47.728Z,100508.78
2024-03-13T23:52:15.412Z,100512.22
2024-03-13T23:54:42.542Z,100514.78
2024-03-13T23:57:09.765Z,100511.34
2024-03-13T23:59:37.275Z,100503.66
